sensor_id;sensor_type;location;lat;lon;timestamp;P1;durP1;ratioP1;P2;durP2;ratioP2
70365;SDS011;57787;48.216;12.396;2022-10-31T00:01:16;24.77;;;9.35;;
70365;SDS011;57787;48.216;12.396;2022-10-31T00:03:51;31.20;;;9.95;;
70365;SDS011;57787;48.216;12.396;2022-10-31T00:06:20;18.98;;;8.43;;
70365;SDS011;57787;48.216;12.396;2022-10-31T00:08:51;20.70;;;8.75;;
70365;SDS011;57787;48.216;12.396;2022-10-31T00:11:20;21.17;;;8.65;;
70365;SDS011;57787;48.216;12.396;2022-10-31T00:13:47;16.67;;;8.77;;
70365;SDS011;57787;48.216;12.396;2022-10-31T00:16:18;25.08;;;9.23;;
70365;SDS011;57787;48.216;12.396;2022-10-31T00:18:53;14.90;;;7.57;;
70365;SDS011;57787;48.216;12.396;2022-10-31T00:21:26;17.23;;;6.80;;
70365;SDS011;57787;48.216;12.396;2022-10-31T00:23:54;15.65;;;8.10;;
70365;SDS011;57787;48.216;12.396;2022-10-31T00:26:20;21.70;;;8.48;;
70365;SDS011;57787;48.216;12.396;2022-10-31T00:28:47;18.05;;;8.02;;
70365;SDS011;57787;48.216;12.396;2022-10-31T00:31:15;15.93;;;7.82;;
70365;SDS011;57787;48.216;12.396;2022-10-31T00:33:43;17.48;;;7.20;;
70365;SDS011;57787;48.216;12.396;2022-10-31T00:36:11;17.80;;;7.60;;
70365;SDS011;57787;48.216;12.396;2022-10-31T00:38:42;18.98;;;7.50;;
70365;SDS011;57787;48.216;12.396;2022-10-31T00:41:12;18.95;;;8.20;;
70365;SDS011;57787;48.216;12.396;2022-10-31T00:43:40;17.20;;;7.07;;
70365;SDS011;57787;48.216;12.396;2022-10-31T00:46:08;22.05;;;7.97;;
70365;SDS011;57787;48.216;12.396;2022-10-31T00:48:38;17.38;;;8.00;;
70365;SDS011;57787;48.216;12.396;2022-10-31T00:51:05;23.30;;;7.88;;
70365;SDS011;57787;48.216;12.396;2022-10-31T00:53:41;16.98;;;7.18;;
70365;SDS011;57787;48.216;12.396;2022-10-31T00:56:08;18.70;;;7.32;;
70365;SDS011;57787;48.216;12.396;2022-10-31T00:58:35;18.50;;;7.50;;
70365;SDS011;57787;48.216;12.396;2022-10-31T01:01:03;19.17;;;7.70;;
70365;SDS011;57787;48.216;12.396;2022-10-31T01:05:59;16.55;;;8.05;;
70365;SDS011;57787;48.216;12.396;2022-10-31T01:08:29;19.75;;;7.45;;
70365;SDS011;57787;48.216;12.396;2022-10-31T01:13:32;14.20;;;7.63;;
70365;SDS011;57787;48.216;12.396;2022-10-31T01:15:59;20.52;;;7.97;;
70365;SDS011;57787;48.216;12.396;2022-10-31T01:18:29;24.73;;;8.32;;
70365;SDS011;57787;48.216;12.396;2022-10-31T01:23:32;16.13;;;8.05;;
70365;SDS011;57787;48.216;12.396;2022-10-31T01:26:07;20.13;;;8.93;;
70365;SDS011;57787;48.216;12.396;2022-10-31T01:28:36;25.45;;;8.85;;
70365;SDS011;57787;48.216;12.396;2022-10-31T01:31:05;19.95;;;9.02;;
70365;SDS011;57787;48.216;12.396;2022-10-31T01:33:53;18.20;;;9.20;;
70365;SDS011;57787;48.216;12.396;2022-10-31T01:36:22;18.20;;;8.55;;
70365;SDS011;57787;48.216;12.396;2022-10-31T01:38:58;22.42;;;8.65;;
70365;SDS011;57787;48.216;12.396;2022-10-31T01:41:47;21.10;;;9.18;;
70365;SDS011;57787;48.216;12.396;2022-10-31T01:49:33;20.20;;;8.85;;
70365;SDS011;57787;48.216;12.396;2022-10-31T01:52:26;22.17;;;10.98;;
70365;SDS011;57787;48.216;12.396;2022-10-31T01:55:06;20.88;;;9.13;;
70365;SDS011;57787;48.216;12.396;2022-10-31T01:57:42;28.42;;;10.65;;
70365;SDS011;57787;48.216;12.396;2022-10-31T02:00:14;31.75;;;10.85;;
70365;SDS011;57787;48.216;12.396;2022-10-31T02:02:42;28.10;;;11.10;;
70365;SDS011;57787;48.216;12.396;2022-10-31T02:05:16;25.75;;;10.23;;
70365;SDS011;57787;48.216;12.396;2022-10-31T02:07:54;25.17;;;10.15;;
70365;SDS011;57787;48.216;12.396;2022-10-31T02:10:24;25.02;;;10.65;;
70365;SDS011;57787;48.216;12.396;2022-10-31T02:12:52;21.60;;;10.23;;
70365;SDS011;57787;48.216;12.396;2022-10-31T02:15:23;23.73;;;10.93;;
70365;SDS011;57787;48.216;12.396;2022-10-31T02:20:25;22.63;;;10.55;;
70365;SDS011;57787;48.216;12.396;2022-10-31T02:28:52;26.08;;;10.93;;
70365;SDS011;57787;48.216;12.396;2022-10-31T02:31:51;25.52;;;11.10;;
70365;SDS011;57787;48.216;12.396;2022-10-31T02:36:57;27.35;;;11.10;;
70365;SDS011;57787;48.216;12.396;2022-10-31T02:43:03;20.73;;;11.15;;
70365;SDS011;57787;48.216;12.396;2022-10-31T02:48:26;24.75;;;11.25;;
70365;SDS011;57787;48.216;12.396;2022-10-31T02:50:56;29.48;;;10.82;;
70365;SDS011;57787;48.216;12.396;2022-10-31T02:53:26;27.02;;;10.73;;
70365;SDS011;57787;48.216;12.396;2022-10-31T02:56:11;30.00;;;10.45;;
70365;SDS011;57787;48.216;12.396;2022-10-31T02:58:50;22.25;;;9.82;;
70365;SDS011;57787;48.216;12.396;2022-10-31T03:04:35;12.80;;;7.95;;
70365;SDS011;57787;48.216;12.396;2022-10-31T03:07:32;23.00;;;9.65;;
70365;SDS011;57787;48.216;12.396;2022-10-31T03:13:21;21.15;;;9.55;;
70365;SDS011;57787;48.216;12.396;2022-10-31T03:16:49;20.23;;;9.63;;
70365;SDS011;57787;48.216;12.396;2022-10-31T03:24:12;24.40;;;10.15;;
70365;SDS011;57787;48.216;12.396;2022-10-31T03:26:42;22.27;;;9.55;;
70365;SDS011;57787;48.216;12.396;2022-10-31T03:29:15;19.73;;;9.82;;
70365;SDS011;57787;48.216;12.396;2022-10-31T03:31:46;18.15;;;8.98;;
70365;SDS011;57787;48.216;12.396;2022-10-31T03:34:33;29.30;;;10.15;;
70365;SDS011;57787;48.216;12.396;2022-10-31T03:37:03;21.60;;;8.25;;
70365;SDS011;57787;48.216;12.396;2022-10-31T03:39:34;20.40;;;8.13;;
70365;SDS011;57787;48.216;12.396;2022-10-31T03:42:05;14.55;;;7.57;;
70365;SDS011;57787;48.216;12.396;2022-10-31T03:44:35;17.33;;;7.95;;
70365;SDS011;57787;48.216;12.396;2022-10-31T03:47:03;14.43;;;8.07;;
70365;SDS011;57787;48.216;12.396;2022-10-31T03:49:32;20.73;;;8.18;;
70365;SDS011;57787;48.216;12.396;2022-10-31T03:52:02;17.27;;;7.35;;
70365;SDS011;57787;48.216;12.396;2022-10-31T03:54:42;19.38;;;8.68;;
70365;SDS011;57787;48.216;12.396;2022-10-31T03:57:27;14.30;;;8.45;;
70365;SDS011;57787;48.216;12.396;2022-10-31T04:00:04;18.33;;;8.40;;
70365;SDS011;57787;48.216;12.396;2022-10-31T04:02:32;17.35;;;8.18;;
70365;SDS011;57787;48.216;12.396;2022-10-31T04:05:00;19.23;;;7.80;;
70365;SDS011;57787;48.216;12.396;2022-10-31T04:07:30;17.75;;;8.23;;
70365;SDS011;57787;48.216;12.396;2022-10-31T04:10:02;21.02;;;7.88;;
70365;SDS011;57787;48.216;12.396;2022-10-31T04:12:33;20.65;;;8.40;;
70365;SDS011;57787;48.216;12.396;2022-10-31T04:15:02;19.00;;;7.28;;
70365;SDS011;57787;48.216;12.396;2022-10-31T04:17:31;18.27;;;7.40;;
70365;SDS011;57787;48.216;12.396;2022-10-31T04:20:02;14.10;;;7.05;;
70365;SDS011;57787;48.216;12.396;2022-10-31T04:22:32;15.85;;;6.95;;
70365;SDS011;57787;48.216;12.396;2022-10-31T04:25:01;15.75;;;7.93;;
70365;SDS011;57787;48.216;12.396;2022-10-31T04:27:32;14.43;;;7.27;;
70365;SDS011;57787;48.216;12.396;2022-10-31T04:30:01;12.02;;;6.30;;
70365;SDS011;57787;48.216;12.396;2022-10-31T04:32:28;16.27;;;6.63;;
70365;SDS011;57787;48.216;12.396;2022-10-31T04:34:55;17.92;;;6.97;;
70365;SDS011;57787;48.216;12.396;2022-10-31T04:37:21;17.52;;;7.00;;
70365;SDS011;57787;48.216;12.396;2022-10-31T04:39:48;10.60;;;6.97;;
70365;SDS011;57787;48.216;12.396;2022-10-31T04:42:15;13.30;;;7.27;;
70365;SDS011;57787;48.216;12.396;2022-10-31T04:44:42;12.95;;;6.35;;
70365;SDS011;57787;48.216;12.396;2022-10-31T04:47:09;17.03;;;6.73;;
70365;SDS011;57787;48.216;12.396;2022-10-31T04:49:35;22.67;;;10.13;;
70365;SDS011;57787;48.216;12.396;2022-10-31T04:52:03;20.27;;;10.13;;
70365;SDS011;57787;48.216;12.396;2022-10-31T04:54:30;21.80;;;12.13;;
70365;SDS011;57787;48.216;12.396;2022-10-31T04:56:59;23.37;;;12.60;;
70365;SDS011;57787;48.216;12.396;2022-10-31T04:59:26;12.93;;;6.55;;
70365;SDS011;57787;48.216;12.396;2022-10-31T05:01:53;14.95;;;7.03;;
70365;SDS011;57787;48.216;12.396;2022-10-31T05:04:21;13.85;;;6.90;;
70365;SDS011;57787;48.216;12.396;2022-10-31T05:06:48;10.93;;;6.67;;
70365;SDS011;57787;48.216;12.396;2022-10-31T05:09:16;13.17;;;7.10;;
70365;SDS011;57787;48.216;12.396;2022-10-31T05:11:44;10.43;;;6.68;;
70365;SDS011;57787;48.216;12.396;2022-10-31T05:14:11;11.48;;;6.57;;
70365;SDS011;57787;48.216;12.396;2022-10-31T05:16:38;12.30;;;6.50;;
70365;SDS011;57787;48.216;12.396;2022-10-31T05:19:04;12.23;;;5.80;;
70365;SDS011;57787;48.216;12.396;2022-10-31T05:21:31;9.83;;;5.70;;
70365;SDS011;57787;48.216;12.396;2022-10-31T05:23:58;11.07;;;5.43;;
70365;SDS011;57787;48.216;12.396;2022-10-31T05:26:25;10.27;;;5.88;;
70365;SDS011;57787;48.216;12.396;2022-10-31T05:28:51;14.47;;;7.10;;
70365;SDS011;57787;48.216;12.396;2022-10-31T05:31:18;12.55;;;6.43;;
70365;SDS011;57787;48.216;12.396;2022-10-31T05:33:45;13.50;;;7.03;;
70365;SDS011;57787;48.216;12.396;2022-10-31T05:36:12;15.30;;;7.10;;
70365;SDS011;57787;48.216;12.396;2022-10-31T05:38:39;17.75;;;6.82;;
70365;SDS011;57787;48.216;12.396;2022-10-31T05:41:05;17.87;;;7.97;;
70365;SDS011;57787;48.216;12.396;2022-10-31T05:43:32;12.60;;;8.00;;
70365;SDS011;57787;48.216;12.396;2022-10-31T05:46:00;16.33;;;7.83;;
70365;SDS011;57787;48.216;12.396;2022-10-31T05:48:27;20.48;;;8.57;;
70365;SDS011;57787;48.216;12.396;2022-10-31T05:50:54;12.20;;;7.47;;
70365;SDS011;57787;48.216;12.396;2022-10-31T05:53:20;16.80;;;8.33;;
70365;SDS011;57787;48.216;12.396;2022-10-31T05:55:47;17.90;;;8.73;;
70365;SDS011;57787;48.216;12.396;2022-10-31T05:58:15;14.68;;;8.90;;
70365;SDS011;57787;48.216;12.396;2022-10-31T06:00:43;19.58;;;9.00;;
70365;SDS011;57787;48.216;12.396;2022-10-31T06:03:10;21.85;;;9.70;;
70365;SDS011;57787;48.216;12.396;2022-10-31T06:05:39;24.75;;;9.27;;
70365;SDS011;57787;48.216;12.396;2022-10-31T06:08:09;16.30;;;9.02;;
70365;SDS011;57787;48.216;12.396;2022-10-31T06:10:36;21.13;;;9.57;;
70365;SDS011;57787;48.216;12.396;2022-10-31T06:13:12;39.77;;;18.00;;
70365;SDS011;57787;48.216;12.396;2022-10-31T06:15:39;35.90;;;15.20;;
70365;SDS011;57787;48.216;12.396;2022-10-31T06:18:07;25.48;;;13.35;;
70365;SDS011;57787;48.216;12.396;2022-10-31T06:23:03;19.10;;;9.73;;
70365;SDS011;57787;48.216;12.396;2022-10-31T06:25:31;25.25;;;11.50;;
70365;SDS011;57787;48.216;12.396;2022-10-31T06:27:59;36.42;;;14.15;;
70365;SDS011;57787;48.216;12.396;2022-10-31T06:30:25;26.88;;;13.38;;
70365;SDS011;57787;48.216;12.396;2022-10-31T06:32:52;38.70;;;17.23;;
70365;SDS011;57787;48.216;12.396;2022-10-31T06:35:19;37.03;;;15.45;;
70365;SDS011;57787;48.216;12.396;2022-10-31T06:37:53;36.17;;;15.75;;
70365;SDS011;57787;48.216;12.396;2022-10-31T06:40:20;30.35;;;14.05;;
70365;SDS011;57787;48.216;12.396;2022-10-31T06:42:47;35.75;;;14.25;;
70365;SDS011;57787;48.216;12.396;2022-10-31T06:45:21;42.08;;;20.02;;
70365;SDS011;57787;48.216;12.396;2022-10-31T06:47:51;61.40;;;27.30;;
70365;SDS011;57787;48.216;12.396;2022-10-31T06:50:39;42.85;;;20.92;;
70365;SDS011;57787;48.216;12.396;2022-10-31T06:53:06;22.63;;;12.10;;
70365;SDS011;57787;48.216;12.396;2022-10-31T06:55:34;88.68;;;32.22;;
70365;SDS011;57787;48.216;12.396;2022-10-31T06:58:08;35.53;;;17.43;;
70365;SDS011;57787;48.216;12.396;2022-10-31T07:00:36;30.77;;;14.68;;
70365;SDS011;57787;48.216;12.396;2022-10-31T07:03:05;25.27;;;12.45;;
70365;SDS011;57787;48.216;12.396;2022-10-31T07:05:35;24.63;;;11.48;;
70365;SDS011;57787;48.216;12.396;2022-10-31T07:08:03;27.33;;;14.10;;
70365;SDS011;57787;48.216;12.396;2022-10-31T07:10:32;27.63;;;15.73;;
70365;SDS011;57787;48.216;12.396;2022-10-31T07:13:08;15.57;;;8.27;;
70365;SDS011;57787;48.216;12.396;2022-10-31T07:15:38;13.90;;;7.53;;
70365;SDS011;57787;48.216;12.396;2022-10-31T07:18:07;13.68;;;8.45;;
70365;SDS011;57787;48.216;12.396;2022-10-31T07:20:36;18.30;;;7.93;;
70365;SDS011;57787;48.216;12.396;2022-10-31T07:23:03;18.33;;;7.30;;
70365;SDS011;57787;48.216;12.396;2022-10-31T07:25:31;16.15;;;8.85;;
70365;SDS011;57787;48.216;12.396;2022-10-31T07:27:59;15.93;;;8.52;;
70365;SDS011;57787;48.216;12.396;2022-10-31T07:30:27;13.93;;;8.45;;
70365;SDS011;57787;48.216;12.396;2022-10-31T07:32:55;14.57;;;9.23;;
70365;SDS011;57787;48.216;12.396;2022-10-31T07:35:23;17.67;;;9.95;;
70365;SDS011;57787;48.216;12.396;2022-10-31T07:37:54;16.90;;;9.50;;
70365;SDS011;57787;48.216;12.396;2022-10-31T07:40:24;16.80;;;9.88;;
70365;SDS011;57787;48.216;12.396;2022-10-31T07:42:51;18.73;;;9.13;;
70365;SDS011;57787;48.216;12.396;2022-10-31T07:45:21;21.65;;;9.73;;
70365;SDS011;57787;48.216;12.396;2022-10-31T07:47:49;23.67;;;11.60;;
70365;SDS011;57787;48.216;12.396;2022-10-31T07:50:21;26.83;;;13.40;;
70365;SDS011;57787;48.216;12.396;2022-10-31T07:55:27;35.63;;;18.52;;
70365;SDS011;57787;48.216;12.396;2022-10-31T07:57:57;20.50;;;11.50;;
70365;SDS011;57787;48.216;12.396;2022-10-31T08:00:27;17.25;;;10.98;;
70365;SDS011;57787;48.216;12.396;2022-10-31T08:03:02;24.15;;;12.88;;
70365;SDS011;57787;48.216;12.396;2022-10-31T08:05:30;20.90;;;10.68;;
70365;SDS011;57787;48.216;12.396;2022-10-31T08:08:00;26.75;;;11.93;;
70365;SDS011;57787;48.216;12.396;2022-10-31T08:10:28;20.92;;;10.50;;
70365;SDS011;57787;48.216;12.396;2022-10-31T08:13:06;30.53;;;12.40;;
70365;SDS011;57787;48.216;12.396;2022-10-31T08:15:47;22.25;;;11.77;;
70365;SDS011;57787;48.216;12.396;2022-10-31T08:18:16;24.15;;;11.52;;
70365;SDS011;57787;48.216;12.396;2022-10-31T08:20:44;15.70;;;9.43;;
70365;SDS011;57787;48.216;12.396;2022-10-31T08:23:12;23.73;;;10.82;;
70365;SDS011;57787;48.216;12.396;2022-10-31T08:25:40;14.15;;;9.73;;
70365;SDS011;57787;48.216;12.396;2022-10-31T08:28:10;26.15;;;11.70;;
70365;SDS011;57787;48.216;12.396;2022-10-31T08:30:37;21.92;;;10.75;;
70365;SDS011;57787;48.216;12.396;2022-10-31T08:35:39;22.80;;;10.18;;
70365;SDS011;57787;48.216;12.396;2022-10-31T08:38:08;22.60;;;9.73;;
70365;SDS011;57787;48.216;12.396;2022-10-31T08:40:37;20.95;;;9.63;;
70365;SDS011;57787;48.216;12.396;2022-10-31T08:43:16;18.55;;;9.18;;
70365;SDS011;57787;48.216;12.396;2022-10-31T08:45:46;21.05;;;9.38;;
70365;SDS011;57787;48.216;12.396;2022-10-31T08:48:15;14.00;;;7.30;;
70365;SDS011;57787;48.216;12.396;2022-10-31T08:50:43;11.07;;;6.85;;
70365;SDS011;57787;48.216;12.396;2022-10-31T08:53:12;14.68;;;6.82;;
70365;SDS011;57787;48.216;12.396;2022-10-31T08:55:40;14.05;;;7.07;;
70365;SDS011;57787;48.216;12.396;2022-10-31T08:58:12;10.15;;;5.60;;
70365;SDS011;57787;48.216;12.396;2022-10-31T09:00:41;14.77;;;5.25;;
70365;SDS011;57787;48.216;12.396;2022-10-31T09:03:09;8.68;;;4.85;;
70365;SDS011;57787;48.216;12.396;2022-10-31T09:05:41;19.83;;;5.00;;
70365;SDS011;57787;48.216;12.396;2022-10-31T09:08:08;19.85;;;4.90;;
70365;SDS011;57787;48.216;12.396;2022-10-31T09:10:41;17.08;;;4.93;;
70365;SDS011;57787;48.216;12.396;2022-10-31T09:13:10;13.23;;;4.95;;
70365;SDS011;57787;48.216;12.396;2022-10-31T09:15:39;19.38;;;4.90;;
70365;SDS011;57787;48.216;12.396;2022-10-31T09:18:07;13.82;;;4.90;;
70365;SDS011;57787;48.216;12.396;2022-10-31T09:23:06;10.02;;;3.85;;
70365;SDS011;57787;48.216;12.396;2022-10-31T09:25:36;13.77;;;4.53;;
70365;SDS011;57787;48.216;12.396;2022-10-31T09:28:04;8.52;;;4.68;;
70365;SDS011;57787;48.216;12.396;2022-10-31T09:30:32;11.13;;;3.75;;
70365;SDS011;57787;48.216;12.396;2022-10-31T09:33:04;7.05;;;3.58;;
70365;SDS011;57787;48.216;12.396;2022-10-31T09:35:33;8.98;;;3.92;;
70365;SDS011;57787;48.216;12.396;2022-10-31T09:38:04;6.40;;;3.50;;
70365;SDS011;57787;48.216;12.396;2022-10-31T09:49:53;11.57;;;3.92;;
70365;SDS011;57787;48.216;12.396;2022-10-31T09:51:57;9.18;;;3.92;;
70365;SDS011;57787;48.216;12.396;2022-10-31T09:57:23;11.90;;;4.00;;
70365;SDS011;57787;48.216;12.396;2022-10-31T09:59:57;8.45;;;4.28;;
70365;SDS011;57787;48.216;12.396;2022-10-31T10:05:21;12.45;;;4.90;;
70365;SDS011;57787;48.216;12.396;2022-10-31T10:08:07;10.95;;;3.75;;
70365;SDS011;57787;48.216;12.396;2022-10-31T10:10:51;16.55;;;4.28;;
70365;SDS011;57787;48.216;12.396;2022-10-31T10:16:31;9.50;;;3.95;;
70365;SDS011;57787;48.216;12.396;2022-10-31T10:19:30;10.65;;;4.55;;
70365;SDS011;57787;48.216;12.396;2022-10-31T10:27:49;19.08;;;4.38;;
70365;SDS011;57787;48.216;12.396;2022-10-31T10:30:34;8.38;;;3.10;;
70365;SDS011;57787;48.216;12.396;2022-10-31T10:36:13;12.30;;;4.15;;
70365;SDS011;57787;48.216;12.396;2022-10-31T10:41:19;12.15;;;4.25;;
70365;SDS011;57787;48.216;12.396;2022-10-31T10:43:51;13.23;;;4.90;;
70365;SDS011;57787;48.216;12.396;2022-10-31T10:52:10;17.08;;;4.25;;
70365;SDS011;57787;48.216;12.396;2022-10-31T11:00:38;17.52;;;4.80;;
70365;SDS011;57787;48.216;12.396;2022-10-31T11:03:09;10.40;;;4.40;;
70365;SDS011;57787;48.216;12.396;2022-10-31T11:05:57;13.50;;;3.63;;
70365;SDS011;57787;48.216;12.396;2022-10-31T11:08:25;12.60;;;4.72;;
70365;SDS011;57787;48.216;12.396;2022-10-31T11:10:58;15.43;;;4.70;;
70365;SDS011;57787;48.216;12.396;2022-10-31T11:13:41;14.50;;;4.28;;
70365;SDS011;57787;48.216;12.396;2022-10-31T11:16:14;10.70;;;4.28;;
70365;SDS011;57787;48.216;12.396;2022-10-31T11:21:43;17.77;;;4.55;;
70365;SDS011;57787;48.216;12.396;2022-10-31T11:24:23;11.07;;;4.32;;
70365;SDS011;57787;48.216;12.396;2022-10-31T11:27:02;18.33;;;4.60;;
70365;SDS011;57787;48.216;12.396;2022-10-31T11:29:45;23.17;;;3.88;;
70365;SDS011;57787;48.216;12.396;2022-10-31T11:32:32;13.85;;;4.22;;
70365;SDS011;57787;48.216;12.396;2022-10-31T11:35:00;14.55;;;4.63;;
70365;SDS011;57787;48.216;12.396;2022-10-31T11:37:29;13.13;;;4.10;;
70365;SDS011;57787;48.216;12.396;2022-10-31T11:40:02;10.38;;;3.47;;
70365;SDS011;57787;48.216;12.396;2022-10-31T11:42:36;11.63;;;4.05;;
70365;SDS011;57787;48.216;12.396;2022-10-31T11:45:07;14.70;;;4.43;;
70365;SDS011;57787;48.216;12.396;2022-10-31T11:47:56;11.82;;;4.07;;
70365;SDS011;57787;48.216;12.396;2022-10-31T11:50:34;13.63;;;3.60;;
70365;SDS011;57787;48.216;12.396;2022-10-31T11:53:12;17.08;;;4.25;;
70365;SDS011;57787;48.216;12.396;2022-10-31T11:55:42;13.05;;;3.65;;
70365;SDS011;57787;48.216;12.396;2022-10-31T11:58:19;6.97;;;3.50;;
70365;SDS011;57787;48.216;12.396;2022-10-31T12:05:58;9.80;;;3.28;;
70365;SDS011;57787;48.216;12.396;2022-10-31T12:08:35;12.60;;;3.70;;
70365;SDS011;57787;48.216;12.396;2022-10-31T12:25:41;8.30;;;3.27;;
70365;SDS011;57787;48.216;12.396;2022-10-31T12:42:13;10.98;;;3.42;;
70365;SDS011;57787;48.216;12.396;2022-10-31T12:50:28;10.90;;;3.42;;
70365;SDS011;57787;48.216;12.396;2022-10-31T12:58:32;15.98;;;3.75;;
70365;SDS011;57787;48.216;12.396;2022-10-31T13:06:24;8.13;;;3.17;;
70365;SDS011;57787;48.216;12.396;2022-10-31T13:09:17;8.50;;;3.47;;
70365;SDS011;57787;48.216;12.396;2022-10-31T13:11:55;8.65;;;3.90;;
70365;SDS011;57787;48.216;12.396;2022-10-31T13:14:44;9.73;;;3.70;;
70365;SDS011;57787;48.216;12.396;2022-10-31T13:17:34;11.15;;;4.20;;
70365;SDS011;57787;48.216;12.396;2022-10-31T13:20:28;12.63;;;4.38;;
70365;SDS011;57787;48.216;12.396;2022-10-31T13:23:10;9.55;;;3.60;;
70365;SDS011;57787;48.216;12.396;2022-10-31T13:29:19;11.70;;;4.07;;
70365;SDS011;57787;48.216;12.396;2022-10-31T13:31:46;9.57;;;4.03;;
70365;SDS011;57787;48.216;12.396;2022-10-31T13:34:30;14.63;;;4.80;;
70365;SDS011;57787;48.216;12.396;2022-10-31T13:37:04;16.48;;;4.47;;
70365;SDS011;57787;48.216;12.396;2022-10-31T13:42:40;8.63;;;3.83;;
70365;SDS011;57787;48.216;12.396;2022-10-31T13:45:22;14.20;;;4.75;;
70365;SDS011;57787;48.216;12.396;2022-10-31T13:48:00;14.25;;;3.92;;
70365;SDS011;57787;48.216;12.396;2022-10-31T13:50:42;12.40;;;4.57;;
70365;SDS011;57787;48.216;12.396;2022-10-31T13:53:22;19.75;;;4.38;;
70365;SDS011;57787;48.216;12.396;2022-10-31T13:56:17;10.23;;;3.95;;
70365;SDS011;57787;48.216;12.396;2022-10-31T14:01:47;11.80;;;4.60;;
70365;SDS011;57787;48.216;12.396;2022-10-31T14:04:25;14.68;;;4.80;;
70365;SDS011;57787;48.216;12.396;2022-10-31T14:07:12;17.10;;;4.47;;
70365;SDS011;57787;48.216;12.396;2022-10-31T14:15:16;13.90;;;5.22;;
70365;SDS011;57787;48.216;12.396;2022-10-31T14:22:56;14.73;;;4.57;;
70365;SDS011;57787;48.216;12.396;2022-10-31T14:25:32;15.55;;;4.78;;
70365;SDS011;57787;48.216;12.396;2022-10-31T14:28:01;12.63;;;4.00;;
70365;SDS011;57787;48.216;12.396;2022-10-31T14:30:50;9.27;;;4.43;;
70365;SDS011;57787;48.216;12.396;2022-10-31T14:36:01;13.35;;;4.20;;
70365;SDS011;57787;48.216;12.396;2022-10-31T14:38:37;14.90;;;4.28;;
70365;SDS011;57787;48.216;12.396;2022-10-31T14:50:15;13.20;;;4.07;;
70365;SDS011;57787;48.216;12.396;2022-10-31T14:53:04;13.02;;;3.92;;
70365;SDS011;57787;48.216;12.396;2022-10-31T14:55:33;14.60;;;4.30;;
70365;SDS011;57787;48.216;12.396;2022-10-31T14:58:15;13.05;;;4.25;;
70365;SDS011;57787;48.216;12.396;2022-10-31T15:00:50;10.55;;;4.60;;
70365;SDS011;57787;48.216;12.396;2022-10-31T15:03:24;15.35;;;4.65;;
70365;SDS011;57787;48.216;12.396;2022-10-31T15:06:05;11.52;;;3.75;;
70365;SDS011;57787;48.216;12.396;2022-10-31T15:11:12;14.52;;;4.22;;
70365;SDS011;57787;48.216;12.396;2022-10-31T15:16:25;16.17;;;4.90;;
70365;SDS011;57787;48.216;12.396;2022-10-31T15:19:07;19.30;;;4.32;;
70365;SDS011;57787;48.216;12.396;2022-10-31T15:21:43;19.23;;;5.22;;
70365;SDS011;57787;48.216;12.396;2022-10-31T15:24:19;9.35;;;4.28;;
70365;SDS011;57787;48.216;12.396;2022-10-31T15:26:48;14.80;;;4.03;;
70365;SDS011;57787;48.216;12.396;2022-10-31T15:29:18;13.30;;;4.25;;
70365;SDS011;57787;48.216;12.396;2022-10-31T15:31:49;10.43;;;4.00;;
70365;SDS011;57787;48.216;12.396;2022-10-31T15:34:29;9.25;;;4.13;;
70365;SDS011;57787;48.216;12.396;2022-10-31T15:37:13;16.63;;;4.07;;
70365;SDS011;57787;48.216;12.396;2022-10-31T15:39:42;13.32;;;4.75;;
70365;SDS011;57787;48.216;12.396;2022-10-31T15:42:28;16.13;;;4.38;;
70365;SDS011;57787;48.216;12.396;2022-10-31T15:45:16;18.58;;;4.97;;
70365;SDS011;57787;48.216;12.396;2022-10-31T15:48:31;15.63;;;5.05;;
70365;SDS011;57787;48.216;12.396;2022-10-31T15:50:48;10.57;;;4.50;;
70365;SDS011;57787;48.216;12.396;2022-10-31T15:55:57;11.60;;;4.53;;
70365;SDS011;57787;48.216;12.396;2022-10-31T15:58:41;14.38;;;4.38;;
70365;SDS011;57787;48.216;12.396;2022-10-31T16:04:24;17.08;;;5.00;;
70365;SDS011;57787;48.216;12.396;2022-10-31T16:06:57;14.35;;;5.53;;
70365;SDS011;57787;48.216;12.396;2022-10-31T16:09:30;17.02;;;4.78;;
70365;SDS011;57787;48.216;12.396;2022-10-31T16:11:57;17.23;;;4.72;;
70365;SDS011;57787;48.216;12.396;2022-10-31T16:14:26;17.60;;;6.13;;
70365;SDS011;57787;48.216;12.396;2022-10-31T16:16:56;15.18;;;5.30;;
70365;SDS011;57787;48.216;12.396;2022-10-31T16:19:30;12.52;;;4.93;;
70365;SDS011;57787;48.216;12.396;2022-10-31T16:22:11;13.82;;;5.28;;
70365;SDS011;57787;48.216;12.396;2022-10-31T16:24:49;16.17;;;5.05;;
70365;SDS011;57787;48.216;12.396;2022-10-31T16:27:38;15.98;;;4.78;;
70365;SDS011;57787;48.216;12.396;2022-10-31T16:32:53;13.73;;;4.60;;
70365;SDS011;57787;48.216;12.396;2022-10-31T16:35:28;12.15;;;5.53;;
70365;SDS011;57787;48.216;12.396;2022-10-31T16:38:02;20.38;;;5.68;;
70365;SDS011;57787;48.216;12.396;2022-10-31T16:42:58;15.20;;;5.70;;
70365;SDS011;57787;48.216;12.396;2022-10-31T16:45:29;22.05;;;5.70;;
70365;SDS011;57787;48.216;12.396;2022-10-31T16:48:09;16.98;;;6.35;;
70365;SDS011;57787;48.216;12.396;2022-10-31T16:50:42;15.13;;;6.63;;
70365;SDS011;57787;48.216;12.396;2022-10-31T16:53:10;15.30;;;8.75;;
70365;SDS011;57787;48.216;12.396;2022-10-31T16:55:43;17.05;;;6.97;;
70365;SDS011;57787;48.216;12.396;2022-10-31T16:58:24;23.38;;;7.43;;
70365;SDS011;57787;48.216;12.396;2022-10-31T17:00:55;19.85;;;6.68;;
70365;SDS011;57787;48.216;12.396;2022-10-31T17:03:28;18.95;;;7.13;;
70365;SDS011;57787;48.216;12.396;2022-10-31T17:05:58;16.65;;;6.47;;
70365;SDS011;57787;48.216;12.396;2022-10-31T17:08:25;12.10;;;6.25;;
70365;SDS011;57787;48.216;12.396;2022-10-31T17:10:53;25.20;;;7.68;;
70365;SDS011;57787;48.216;12.396;2022-10-31T17:13:22;16.88;;;7.28;;
70365;SDS011;57787;48.216;12.396;2022-10-31T17:15:58;13.38;;;6.60;;
70365;SDS011;57787;48.216;12.396;2022-10-31T17:18:25;15.07;;;6.90;;
70365;SDS011;57787;48.216;12.396;2022-10-31T17:24:13;19.02;;;7.32;;
70365;SDS011;57787;48.216;12.396;2022-10-31T17:29:09;14.38;;;7.10;;
70365;SDS011;57787;48.216;12.396;2022-10-31T17:31:36;15.07;;;6.78;;
70365;SDS011;57787;48.216;12.396;2022-10-31T17:34:04;19.50;;;7.40;;
70365;SDS011;57787;48.216;12.396;2022-10-31T17:36:33;24.08;;;7.68;;
70365;SDS011;57787;48.216;12.396;2022-10-31T17:39:00;35.95;;;9.95;;
70365;SDS011;57787;48.216;12.396;2022-10-31T17:41:30;21.45;;;7.80;;
70365;SDS011;57787;48.216;12.396;2022-10-31T17:43:58;22.52;;;8.30;;
70365;SDS011;57787;48.216;12.396;2022-10-31T17:46:25;19.20;;;8.93;;
70365;SDS011;57787;48.216;12.396;2022-10-31T17:48:53;18.98;;;9.07;;
70365;SDS011;57787;48.216;12.396;2022-10-31T17:51:23;20.25;;;8.65;;
70365;SDS011;57787;48.216;12.396;2022-10-31T17:53:50;21.35;;;8.73;;
70365;SDS011;57787;48.216;12.396;2022-10-31T17:56:17;21.30;;;9.50;;
70365;SDS011;57787;48.216;12.396;2022-10-31T17:58:43;28.52;;;16.00;;
70365;SDS011;57787;48.216;12.396;2022-10-31T18:01:13;38.53;;;16.17;;
70365;SDS011;57787;48.216;12.396;2022-10-31T18:03:42;36.28;;;18.27;;
70365;SDS011;57787;48.216;12.396;2022-10-31T18:06:10;32.20;;;13.98;;
70365;SDS011;57787;48.216;12.396;2022-10-31T18:08:40;32.33;;;15.70;;
70365;SDS011;57787;48.216;12.396;2022-10-31T18:11:09;25.95;;;13.25;;